sensor_id;sensor_type;location;lat;lon;timestamp;P1;durP1;ratioP1;P2;durP2;ratioP2
1721;SDS011;858;53.190;8.596;2022-07-06T00:01:31;5.03;;;2.40;;
1721;SDS011;858;53.190;8.596;2022-07-06T00:03:57;6.75;;;2.42;;
1721;SDS011;858;53.190;8.596;2022-07-06T00:06:25;5.72;;;2.10;;
1721;SDS011;858;53.190;8.596;2022-07-06T00:08:51;5.07;;;2.30;;
1721;SDS011;858;53.190;8.596;2022-07-06T00:11:18;3.63;;;2.00;;
1721;SDS011;858;53.190;8.596;2022-07-06T00:13:44;3.67;;;2.40;;
1721;SDS011;858;53.190;8.596;2022-07-06T00:16:10;6.85;;;2.30;;
1721;SDS011;858;53.190;8.596;2022-07-06T00:18:37;6.60;;;2.30;;
1721;SDS011;858;53.190;8.596;2022-07-06T00:21:03;5.40;;;2.03;;
1721;SDS011;858;53.190;8.596;2022-07-06T00:23:31;5.88;;;2.35;;
1721;SDS011;858;53.190;8.596;2022-07-06T00:25:57;4.15;;;2.13;;
1721;SDS011;858;53.190;8.596;2022-07-06T00:28:23;6.65;;;2.20;;
1721;SDS011;858;53.190;8.596;2022-07-06T00:30:50;4.18;;;2.13;;
1721;SDS011;858;53.190;8.596;2022-07-06T00:33:16;5.80;;;2.60;;
1721;SDS011;858;53.190;8.596;2022-07-06T00:35:42;4.90;;;2.30;;
1721;SDS011;858;53.190;8.596;2022-07-06T00:38:08;5.68;;;2.20;;
1721;SDS011;858;53.190;8.596;2022-07-06T00:40:36;4.40;;;1.80;;
1721;SDS011;858;53.190;8.596;2022-07-06T00:43:02;5.38;;;2.10;;
1721;SDS011;858;53.190;8.596;2022-07-06T00:45:29;8.65;;;2.53;;
1721;SDS011;858;53.190;8.596;2022-07-06T00:47:55;5.53;;;2.55;;
1721;SDS011;858;53.190;8.596;2022-07-06T00:50:22;6.47;;;2.43;;
1721;SDS011;858;53.190;8.596;2022-07-06T00:52:49;5.07;;;1.98;;
1721;SDS011;858;53.190;8.596;2022-07-06T00:55:16;2.67;;;2.00;;
1721;SDS011;858;53.190;8.596;2022-07-06T00:57:45;5.55;;;2.35;;
1721;SDS011;858;53.190;8.596;2022-07-06T01:00:12;6.25;;;2.80;;
1721;SDS011;858;53.190;8.596;2022-07-06T01:02:39;5.03;;;2.30;;
1721;SDS011;858;53.190;8.596;2022-07-06T01:05:05;7.07;;;2.30;;
1721;SDS011;858;53.190;8.596;2022-07-06T01:07:32;4.78;;;2.60;;
1721;SDS011;858;53.190;8.596;2022-07-06T01:09:59;4.63;;;2.42;;
1721;SDS011;858;53.190;8.596;2022-07-06T01:12:25;5.00;;;2.13;;
1721;SDS011;858;53.190;8.596;2022-07-06T01:14:53;4.20;;;2.07;;
1721;SDS011;858;53.190;8.596;2022-07-06T01:17:20;7.18;;;2.13;;
1721;SDS011;858;53.190;8.596;2022-07-06T01:19:46;6.07;;;2.78;;
1721;SDS011;858;53.190;8.596;2022-07-06T01:22:14;6.60;;;2.38;;
1721;SDS011;858;53.190;8.596;2022-07-06T01:24:40;7.72;;;2.30;;
1721;SDS011;858;53.190;8.596;2022-07-06T01:27:07;6.80;;;2.72;;
1721;SDS011;858;53.190;8.596;2022-07-06T01:29:34;6.90;;;2.20;;
1721;SDS011;858;53.190;8.596;2022-07-06T01:32:01;7.95;;;2.58;;
1721;SDS011;858;53.190;8.596;2022-07-06T01:34:27;5.87;;;2.37;;
1721;SDS011;858;53.190;8.596;2022-07-06T01:36:53;6.10;;;2.40;;
1721;SDS011;858;53.190;8.596;2022-07-06T01:39:22;6.57;;;2.90;;
1721;SDS011;858;53.190;8.596;2022-07-06T01:41:48;6.38;;;2.40;;
1721;SDS011;858;53.190;8.596;2022-07-06T01:44:14;6.07;;;2.53;;
1721;SDS011;858;53.190;8.596;2022-07-06T01:46:40;6.65;;;2.33;;
1721;SDS011;858;53.190;8.596;2022-07-06T01:49:07;5.22;;;2.20;;
1721;SDS011;858;53.190;8.596;2022-07-06T01:51:33;4.93;;;2.70;;
1721;SDS011;858;53.190;8.596;2022-07-06T01:53:59;7.00;;;2.40;;
1721;SDS011;858;53.190;8.596;2022-07-06T01:56:27;5.80;;;2.40;;
1721;SDS011;858;53.190;8.596;2022-07-06T01:58:53;5.30;;;2.10;;
1721;SDS011;858;53.190;8.596;2022-07-06T02:01:20;5.32;;;2.30;;
1721;SDS011;858;53.190;8.596;2022-07-06T02:03:47;5.65;;;2.40;;
1721;SDS011;858;53.190;8.596;2022-07-06T02:06:13;6.20;;;2.38;;
1721;SDS011;858;53.190;8.596;2022-07-06T02:08:40;4.57;;;2.40;;
1721;SDS011;858;53.190;8.596;2022-07-06T02:11:06;5.78;;;2.28;;
1721;SDS011;858;53.190;8.596;2022-07-06T02:13:34;6.57;;;2.10;;
1721;SDS011;858;53.190;8.596;2022-07-06T02:16:01;6.70;;;2.63;;
1721;SDS011;858;53.190;8.596;2022-07-06T02:18:28;5.17;;;2.40;;
1721;SDS011;858;53.190;8.596;2022-07-06T02:20:54;5.30;;;2.40;;
1721;SDS011;858;53.190;8.596;2022-07-06T02:23:21;5.90;;;2.80;;
1721;SDS011;858;53.190;8.596;2022-07-06T02:25:47;5.07;;;2.60;;
1721;SDS011;858;53.190;8.596;2022-07-06T02:28:13;5.05;;;2.40;;
1721;SDS011;858;53.190;8.596;2022-07-06T02:30:41;5.70;;;2.17;;
1721;SDS011;858;53.190;8.596;2022-07-06T02:33:07;6.43;;;2.80;;
1721;SDS011;858;53.190;8.596;2022-07-06T02:35:34;3.97;;;2.50;;
1721;SDS011;858;53.190;8.596;2022-07-06T02:38:00;4.32;;;2.17;;
1721;SDS011;858;53.190;8.596;2022-07-06T02:40:26;5.20;;;2.58;;
1721;SDS011;858;53.190;8.596;2022-07-06T02:42:53;4.28;;;2.50;;
1721;SDS011;858;53.190;8.596;2022-07-06T02:45:19;5.40;;;2.42;;
1721;SDS011;858;53.190;8.596;2022-07-06T02:47:47;5.32;;;2.67;;
1721;SDS011;858;53.190;8.596;2022-07-06T02:50:13;5.47;;;2.80;;
1721;SDS011;858;53.190;8.596;2022-07-06T02:52:39;8.15;;;3.30;;
1721;SDS011;858;53.190;8.596;2022-07-06T02:55:06;7.28;;;2.90;;
1721;SDS011;858;53.190;8.596;2022-07-06T02:57:32;4.80;;;2.55;;
1721;SDS011;858;53.190;8.596;2022-07-06T02:59:58;6.32;;;3.20;;
1721;SDS011;858;53.190;8.596;2022-07-06T03:02:25;5.03;;;2.58;;
1721;SDS011;858;53.190;8.596;2022-07-06T03:04:52;4.63;;;2.40;;
1721;SDS011;858;53.190;8.596;2022-07-06T03:07:19;4.60;;;2.80;;
1721;SDS011;858;53.190;8.596;2022-07-06T03:09:45;7.33;;;3.00;;
1721;SDS011;858;53.190;8.596;2022-07-06T03:12:11;5.00;;;2.90;;
1721;SDS011;858;53.190;8.596;2022-07-06T03:14:37;6.78;;;3.17;;
1721;SDS011;858;53.190;8.596;2022-07-06T03:17:04;7.55;;;3.00;;
1721;SDS011;858;53.190;8.596;2022-07-06T03:19:30;4.30;;;3.00;;
1721;SDS011;858;53.190;8.596;2022-07-06T03:21:58;7.88;;;2.95;;
1721;SDS011;858;53.190;8.596;2022-07-06T03:24:24;5.25;;;2.70;;
1721;SDS011;858;53.190;8.596;2022-07-06T03:26:50;5.97;;;2.50;;
1721;SDS011;858;53.190;8.596;2022-07-06T03:29:17;5.75;;;2.60;;
1721;SDS011;858;53.190;8.596;2022-07-06T03:31:43;7.00;;;3.33;;
1721;SDS011;858;53.190;8.596;2022-07-06T03:34:09;5.70;;;2.30;;
1721;SDS011;858;53.190;8.596;2022-07-06T03:36:36;4.30;;;2.80;;
1721;SDS011;858;53.190;8.596;2022-07-06T03:39:04;6.60;;;2.78;;
1721;SDS011;858;53.190;8.596;2022-07-06T03:41:30;8.63;;;3.10;;
1721;SDS011;858;53.190;8.596;2022-07-06T03:43:57;5.95;;;2.60;;
1721;SDS011;858;53.190;8.596;2022-07-06T03:46:23;9.05;;;2.90;;
1721;SDS011;858;53.190;8.596;2022-07-06T03:48:49;5.00;;;2.60;;
1721;SDS011;858;53.190;8.596;2022-07-06T03:51:16;6.53;;;2.60;;
1721;SDS011;858;53.190;8.596;2022-07-06T03:53:42;8.63;;;2.70;;
1721;SDS011;858;53.190;8.596;2022-07-06T03:56:10;7.43;;;2.25;;
1721;SDS011;858;53.190;8.596;2022-07-06T03:58:55;4.82;;;2.45;;
1721;SDS011;858;53.190;8.596;2022-07-06T04:01:21;6.72;;;2.80;;
1721;SDS011;858;53.190;8.596;2022-07-06T04:03:47;5.32;;;2.63;;
1721;SDS011;858;53.190;8.596;2022-07-06T04:06:14;7.72;;;3.17;;
1721;SDS011;858;53.190;8.596;2022-07-06T04:08:40;4.70;;;2.40;;
1721;SDS011;858;53.190;8.596;2022-07-06T04:11:07;6.65;;;2.60;;
1721;SDS011;858;53.190;8.596;2022-07-06T04:13:34;3.35;;;2.60;;
1721;SDS011;858;53.190;8.596;2022-07-06T04:16:02;6.47;;;3.20;;
1721;SDS011;858;53.190;8.596;2022-07-06T04:18:28;5.13;;;2.80;;
1721;SDS011;858;53.190;8.596;2022-07-06T04:20:54;5.20;;;2.20;;
1721;SDS011;858;53.190;8.596;2022-07-06T04:23:22;5.28;;;2.60;;
1721;SDS011;858;53.190;8.596;2022-07-06T04:25:48;4.53;;;2.50;;
1721;SDS011;858;53.190;8.596;2022-07-06T04:28:15;4.20;;;2.10;;
1721;SDS011;858;53.190;8.596;2022-07-06T04:30:42;6.68;;;2.60;;
1721;SDS011;858;53.190;8.596;2022-07-06T04:33:09;4.97;;;2.30;;
1721;SDS011;858;53.190;8.596;2022-07-06T04:35:35;4.80;;;2.38;;
1721;SDS011;858;53.190;8.596;2022-07-06T04:38:01;7.40;;;2.73;;
1721;SDS011;858;53.190;8.596;2022-07-06T04:40:28;7.45;;;2.47;;
1721;SDS011;858;53.190;8.596;2022-07-06T04:42:54;7.28;;;2.00;;
1721;SDS011;858;53.190;8.596;2022-07-06T04:45:20;6.70;;;2.20;;
1721;SDS011;858;53.190;8.596;2022-07-06T04:47:48;5.80;;;2.67;;
1721;SDS011;858;53.190;8.596;2022-07-06T04:50:14;7.80;;;2.10;;
1721;SDS011;858;53.190;8.596;2022-07-06T04:52:41;8.07;;;2.30;;
1721;SDS011;858;53.190;8.596;2022-07-06T04:55:07;6.53;;;2.30;;
1721;SDS011;858;53.190;8.596;2022-07-06T04:57:35;6.13;;;2.13;;
1721;SDS011;858;53.190;8.596;2022-07-06T05:00:01;4.28;;;1.80;;
1721;SDS011;858;53.190;8.596;2022-07-06T05:02:28;6.22;;;2.08;;
1721;SDS011;858;53.190;8.596;2022-07-06T05:04:56;3.97;;;1.83;;
1721;SDS011;858;53.190;8.596;2022-07-06T05:07:22;5.90;;;2.00;;
1721;SDS011;858;53.190;8.596;2022-07-06T05:09:53;4.10;;;1.70;;
1721;SDS011;858;53.190;8.596;2022-07-06T05:12:19;3.50;;;1.90;;
1721;SDS011;858;53.190;8.596;2022-07-06T05:14:45;4.60;;;1.60;;
1721;SDS011;858;53.190;8.596;2022-07-06T05:17:12;6.70;;;2.13;;
1721;SDS011;858;53.190;8.596;2022-07-06T05:19:38;4.03;;;1.60;;
1721;SDS011;858;53.190;8.596;2022-07-06T05:22:06;2.55;;;1.55;;
1721;SDS011;858;53.190;8.596;2022-07-06T05:24:32;4.38;;;1.60;;
1721;SDS011;858;53.190;8.596;2022-07-06T05:26:58;5.18;;;1.92;;
1721;SDS011;858;53.190;8.596;2022-07-06T05:29:25;6.50;;;2.60;;
1721;SDS011;858;53.190;8.596;2022-07-06T05:31:51;4.18;;;2.05;;
1721;SDS011;858;53.190;8.596;2022-07-06T05:34:17;7.93;;;2.50;;
1721;SDS011;858;53.190;8.596;2022-07-06T05:36:43;4.60;;;2.20;;
1721;SDS011;858;53.190;8.596;2022-07-06T05:39:11;5.10;;;2.55;;
1721;SDS011;858;53.190;8.596;2022-07-06T05:41:37;4.82;;;2.42;;
1721;SDS011;858;53.190;8.596;2022-07-06T05:44:04;6.65;;;3.00;;
1721;SDS011;858;53.190;8.596;2022-07-06T05:46:30;6.65;;;3.10;;
1721;SDS011;858;53.190;8.596;2022-07-06T05:48:56;6.03;;;2.67;;
1721;SDS011;858;53.190;8.596;2022-07-06T05:51:40;8.45;;;3.15;;
1721;SDS011;858;53.190;8.596;2022-07-06T05:54:07;4.47;;;2.70;;
1721;SDS011;858;53.190;8.596;2022-07-06T05:56:34;5.55;;;2.88;;
1721;SDS011;858;53.190;8.596;2022-07-06T05:59:00;5.82;;;2.67;;
1721;SDS011;858;53.190;8.596;2022-07-06T06:01:27;5.22;;;2.40;;
1721;SDS011;858;53.190;8.596;2022-07-06T06:03:53;5.57;;;2.10;;
1721;SDS011;858;53.190;8.596;2022-07-06T06:06:19;5.22;;;2.55;;
1721;SDS011;858;53.190;8.596;2022-07-06T06:08:46;7.65;;;2.55;;
1721;SDS011;858;53.190;8.596;2022-07-06T06:11:12;3.75;;;2.10;;
1721;SDS011;858;53.190;8.596;2022-07-06T06:13:40;6.75;;;2.47;;
1721;SDS011;858;53.190;8.596;2022-07-06T06:16:06;4.40;;;2.60;;
1721;SDS011;858;53.190;8.596;2022-07-06T06:18:32;6.03;;;2.00;;
1721;SDS011;858;53.190;8.596;2022-07-06T06:20:59;5.45;;;2.25;;
1721;SDS011;858;53.190;8.596;2022-07-06T06:23:25;6.43;;;2.00;;
1721;SDS011;858;53.190;8.596;2022-07-06T06:25:51;3.80;;;2.00;;
1721;SDS011;858;53.190;8.596;2022-07-06T06:28:18;5.72;;;2.20;;
1721;SDS011;858;53.190;8.596;2022-07-06T06:30:45;8.27;;;2.20;;
1721;SDS011;858;53.190;8.596;2022-07-06T06:33:12;8.48;;;1.80;;
1721;SDS011;858;53.190;8.596;2022-07-06T06:35:41;4.18;;;2.03;;
1721;SDS011;858;53.190;8.596;2022-07-06T06:38:08;5.25;;;1.80;;
1721;SDS011;858;53.190;8.596;2022-07-06T06:40:34;4.05;;;1.80;;
1721;SDS011;858;53.190;8.596;2022-07-06T06:43:01;6.05;;;1.90;;
1721;SDS011;858;53.190;8.596;2022-07-06T06:45:27;4.15;;;1.73;;
1721;SDS011;858;53.190;8.596;2022-07-06T06:47:55;9.77;;;1.80;;
1721;SDS011;858;53.190;8.596;2022-07-06T06:50:21;4.35;;;1.80;;
1721;SDS011;858;53.190;8.596;2022-07-06T06:52:48;4.40;;;1.70;;
1721;SDS011;858;53.190;8.596;2022-07-06T06:55:15;6.35;;;1.60;;
1721;SDS011;858;53.190;8.596;2022-07-06T06:57:41;7.28;;;1.40;;
1721;SDS011;858;53.190;8.596;2022-07-06T07:00:08;7.90;;;1.80;;
1721;SDS011;858;53.190;8.596;2022-07-06T07:02:34;2.90;;;1.50;;
1721;SDS011;858;53.190;8.596;2022-07-06T07:05:02;4.53;;;1.30;;
1721;SDS011;858;53.190;8.596;2022-07-06T07:07:28;4.97;;;1.67;;
1721;SDS011;858;53.190;8.596;2022-07-06T07:09:54;6.67;;;1.57;;
1721;SDS011;858;53.190;8.596;2022-07-06T07:12:21;4.15;;;1.30;;
1721;SDS011;858;53.190;8.596;2022-07-06T07:14:47;5.40;;;1.60;;
1721;SDS011;858;53.190;8.596;2022-07-06T07:17:13;3.30;;;1.20;;
1721;SDS011;858;53.190;8.596;2022-07-06T07:19:40;6.10;;;1.60;;
1721;SDS011;858;53.190;8.596;2022-07-06T07:22:07;4.28;;;1.30;;
1721;SDS011;858;53.190;8.596;2022-07-06T07:24:34;4.35;;;1.40;;
1721;SDS011;858;53.190;8.596;2022-07-06T07:27:00;3.83;;;1.40;;
1721;SDS011;858;53.190;8.596;2022-07-06T07:29:26;3.30;;;1.40;;
1721;SDS011;858;53.190;8.596;2022-07-06T07:31:53;3.03;;;1.00;;
1721;SDS011;858;53.190;8.596;2022-07-06T07:34:19;6.90;;;1.50;;
1721;SDS011;858;53.190;8.596;2022-07-06T07:36:45;2.10;;;1.20;;
1721;SDS011;858;53.190;8.596;2022-07-06T07:39:13;4.90;;;1.10;;
1721;SDS011;858;53.190;8.596;2022-07-06T07:41:39;1.95;;;0.90;;
1721;SDS011;858;53.190;8.596;2022-07-06T07:44:06;5.10;;;1.10;;
1721;SDS011;858;53.190;8.596;2022-07-06T07:46:32;3.50;;;1.20;;
1721;SDS011;858;53.190;8.596;2022-07-06T07:48:58;5.07;;;1.30;;
1721;SDS011;858;53.190;8.596;2022-07-06T07:51:24;3.10;;;1.30;;
1721;SDS011;858;53.190;8.596;2022-07-06T07:53:51;3.58;;;1.25;;
1721;SDS011;858;53.190;8.596;2022-07-06T07:56:18;5.00;;;1.10;;
1721;SDS011;858;53.190;8.596;2022-07-06T07:58:45;7.63;;;1.40;;
1721;SDS011;858;53.190;8.596;2022-07-06T08:01:13;3.50;;;1.10;;
1721;SDS011;858;53.190;8.596;2022-07-06T08:03:39;2.70;;;1.10;;
1721;SDS011;858;53.190;8.596;2022-07-06T08:06:06;5.60;;;1.20;;
1721;SDS011;858;53.190;8.596;2022-07-06T08:08:32;3.83;;;1.63;;
1721;SDS011;858;53.190;8.596;2022-07-06T08:10:58;4.50;;;1.40;;
1721;SDS011;858;53.190;8.596;2022-07-06T08:13:26;1.43;;;1.00;;
1721;SDS011;858;53.190;8.596;2022-07-06T08:15:52;4.40;;;1.00;;
1721;SDS011;858;53.190;8.596;2022-07-06T08:18:19;5.18;;;1.25;;
1721;SDS011;858;53.190;8.596;2022-07-06T08:20:45;5.77;;;1.60;;
1721;SDS011;858;53.190;8.596;2022-07-06T08:23:11;2.60;;;1.15;;
1721;SDS011;858;53.190;8.596;2022-07-06T08:25:38;3.97;;;1.20;;
1721;SDS011;858;53.190;8.596;2022-07-06T08:28:04;3.78;;;1.13;;
1721;SDS011;858;53.190;8.596;2022-07-06T08:30:32;3.83;;;1.00;;
1721;SDS011;858;53.190;8.596;2022-07-06T08:32:59;2.92;;;1.25;;
1721;SDS011;858;53.190;8.596;2022-07-06T08:35:26;3.13;;;0.90;;
1721;SDS011;858;53.190;8.596;2022-07-06T08:37:52;3.72;;;0.90;;
1721;SDS011;858;53.190;8.596;2022-07-06T08:40:19;5.45;;;0.90;;
1721;SDS011;858;53.190;8.596;2022-07-06T08:42:45;3.53;;;0.90;;
1721;SDS011;858;53.190;8.596;2022-07-06T08:45:13;2.50;;;0.80;;
1721;SDS011;858;53.190;8.596;2022-07-06T08:47:41;2.83;;;1.10;;
1721;SDS011;858;53.190;8.596;2022-07-06T08:50:08;2.85;;;1.00;;
1721;SDS011;858;53.190;8.596;2022-07-06T08:52:35;2.85;;;1.00;;
1721;SDS011;858;53.190;8.596;2022-07-06T08:55:02;3.17;;;0.90;;
1721;SDS011;858;53.190;8.596;2022-07-06T08:57:29;2.50;;;0.80;;
1721;SDS011;858;53.190;8.596;2022-07-06T08:59:55;4.60;;;1.10;;
1721;SDS011;858;53.190;8.596;2022-07-06T09:02:22;4.60;;;1.60;;
1721;SDS011;858;53.190;8.596;2022-07-06T09:04:51;5.65;;;1.20;;
1721;SDS011;858;53.190;8.596;2022-07-06T09:07:20;2.15;;;1.30;;
1721;SDS011;858;53.190;8.596;2022-07-06T09:09:47;5.85;;;1.40;;
1721;SDS011;858;53.190;8.596;2022-07-06T09:12:14;5.38;;;1.40;;
1721;SDS011;858;53.190;8.596;2022-07-06T09:14:40;5.53;;;1.17;;
1721;SDS011;858;53.190;8.596;2022-07-06T09:17:07;7.68;;;1.40;;
1721;SDS011;858;53.190;8.596;2022-07-06T09:19:33;4.97;;;1.50;;
1721;SDS011;858;53.190;8.596;2022-07-06T09:22:02;2.20;;;0.83;;
1721;SDS011;858;53.190;8.596;2022-07-06T09:24:28;3.50;;;1.50;;
1721;SDS011;858;53.190;8.596;2022-07-06T09:26:56;4.13;;;1.13;;
1721;SDS011;858;53.190;8.596;2022-07-06T09:29:27;4.85;;;1.20;;
1721;SDS011;858;53.190;8.596;2022-07-06T09:31:57;4.10;;;1.17;;
1721;SDS011;858;53.190;8.596;2022-07-06T09:34:23;3.47;;;0.90;;
1721;SDS011;858;53.190;8.596;2022-07-06T09:36:51;3.97;;;1.20;;
1721;SDS011;858;53.190;8.596;2022-07-06T09:39:20;7.33;;;0.90;;
1721;SDS011;858;53.190;8.596;2022-07-06T09:41:47;4.40;;;1.00;;
1721;SDS011;858;53.190;8.596;2022-07-06T09:44:17;2.30;;;0.80;;
1721;SDS011;858;53.190;8.596;2022-07-06T09:46:45;2.95;;;1.10;;
1721;SDS011;858;53.190;8.596;2022-07-06T09:49:12;2.97;;;1.08;;
1721;SDS011;858;53.190;8.596;2022-07-06T09:51:38;2.40;;;0.80;;
1721;SDS011;858;53.190;8.596;2022-07-06T09:54:05;4.50;;;1.15;;
1721;SDS011;858;53.190;8.596;2022-07-06T09:56:37;2.90;;;1.10;;
1721;SDS011;858;53.190;8.596;2022-07-06T09:59:13;2.90;;;1.02;;
1721;SDS011;858;53.190;8.596;2022-07-06T10:01:40;4.60;;;1.00;;
1721;SDS011;858;53.190;8.596;2022-07-06T10:04:07;2.90;;;0.90;;
1721;SDS011;858;53.190;8.596;2022-07-06T10:06:34;3.00;;;1.00;;
1721;SDS011;858;53.190;8.596;2022-07-06T10:09:02;1.20;;;0.90;;
1721;SDS011;858;53.190;8.596;2022-07-06T10:11:31;1.50;;;0.60;;
1721;SDS011;858;53.190;8.596;2022-07-06T10:14:00;3.58;;;1.00;;
1721;SDS011;858;53.190;8.596;2022-07-06T10:16:27;4.23;;;0.90;;
1721;SDS011;858;53.190;8.596;2022-07-06T10:18:54;1.98;;;0.70;;
1721;SDS011;858;53.190;8.596;2022-07-06T10:21:21;2.60;;;1.00;;
1721;SDS011;858;53.190;8.596;2022-07-06T10:23:48;5.22;;;1.10;;
1721;SDS011;858;53.190;8.596;2022-07-06T10:26:14;3.13;;;1.20;;
1721;SDS011;858;53.190;8.596;2022-07-06T10:28:41;4.68;;;1.40;;
1721;SDS011;858;53.190;8.596;2022-07-06T10:31:09;4.03;;;1.30;;
1721;SDS011;858;53.190;8.596;2022-07-06T10:33:35;3.97;;;1.10;;
1721;SDS011;858;53.190;8.596;2022-07-06T10:36:03;1.58;;;1.00;;
1721;SDS011;858;53.190;8.596;2022-07-06T10:38:30;2.00;;;1.20;;
1721;SDS011;858;53.190;8.596;2022-07-06T10:40:58;3.60;;;0.85;;
1721;SDS011;858;53.190;8.596;2022-07-06T10:43:33;3.90;;;1.00;;
1721;SDS011;858;53.190;8.596;2022-07-06T10:46:04;2.30;;;0.90;;
1721;SDS011;858;53.190;8.596;2022-07-06T10:48:35;4.18;;;0.90;;
1721;SDS011;858;53.190;8.596;2022-07-06T10:51:01;2.47;;;1.15;;
1721;SDS011;858;53.190;8.596;2022-07-06T10:53:30;4.70;;;1.30;;
1721;SDS011;858;53.190;8.596;2022-07-06T10:55:58;4.07;;;1.10;;
1721;SDS011;858;53.190;8.596;2022-07-06T10:58:34;3.58;;;1.15;;
1721;SDS011;858;53.190;8.596;2022-07-06T11:01:00;2.27;;;1.00;;
1721;SDS011;858;53.190;8.596;2022-07-06T11:03:30;4.07;;;0.80;;
1721;SDS011;858;53.190;8.596;2022-07-06T11:05:59;2.42;;;0.80;;
1721;SDS011;858;53.190;8.596;2022-07-06T11:11:10;1.83;;;0.60;;
1721;SDS011;858;53.190;8.596;2022-07-06T11:13:41;4.10;;;0.70;;
1721;SDS011;858;53.190;8.596;2022-07-06T11:16:08;2.08;;;0.68;;
1721;SDS011;858;53.190;8.596;2022-07-06T11:18:38;1.63;;;0.70;;
1721;SDS011;858;53.190;8.596;2022-07-06T11:21:19;1.60;;;0.70;;
1721;SDS011;858;53.190;8.596;2022-07-06T11:23:46;2.78;;;0.80;;
1721;SDS011;858;53.190;8.596;2022-07-06T11:26:13;2.30;;;0.70;;
1721;SDS011;858;53.190;8.596;2022-07-06T11:28:39;2.72;;;0.65;;
1721;SDS011;858;53.190;8.596;2022-07-06T11:31:05;1.27;;;0.60;;
1721;SDS011;858;53.190;8.596;2022-07-06T11:33:32;2.38;;;0.80;;
1721;SDS011;858;53.190;8.596;2022-07-06T11:36:11;1.70;;;0.60;;
1721;SDS011;858;53.190;8.596;2022-07-06T11:38:39;3.40;;;0.67;;
1721;SDS011;858;53.190;8.596;2022-07-06T11:41:05;2.50;;;0.70;;
1721;SDS011;858;53.190;8.596;2022-07-06T11:43:32;4.05;;;0.85;;
1721;SDS011;858;53.190;8.596;2022-07-06T11:45:58;1.97;;;0.67;;
1721;SDS011;858;53.190;8.596;2022-07-06T11:48:24;1.90;;;0.80;;
1721;SDS011;858;53.190;8.596;2022-07-06T11:51:00;1.35;;;0.60;;
1721;SDS011;858;53.190;8.596;2022-07-06T11:53:26;2.60;;;0.70;;
1721;SDS011;858;53.190;8.596;2022-07-06T11:55:54;1.35;;;0.60;;
1721;SDS011;858;53.190;8.596;2022-07-06T11:58:21;2.90;;;0.85;;
1721;SDS011;858;53.190;8.596;2022-07-06T12:01:02;1.63;;;0.70;;
1721;SDS011;858;53.190;8.596;2022-07-06T12:03:28;2.60;;;0.80;;
1721;SDS011;858;53.190;8.596;2022-07-06T12:05:55;3.20;;;1.00;;
1721;SDS011;858;53.190;8.596;2022-07-06T12:08:21;3.95;;;0.80;;
1721;SDS011;858;53.190;8.596;2022-07-06T12:10:48;2.60;;;0.70;;
1721;SDS011;858;53.190;8.596;2022-07-06T12:13:15;2.87;;;0.70;;
1721;SDS011;858;53.190;8.596;2022-07-06T12:15:42;2.90;;;0.70;;
1721;SDS011;858;53.190;8.596;2022-07-06T12:18:08;2.67;;;0.70;;
1721;SDS011;858;53.190;8.596;2022-07-06T12:20:35;2.10;;;0.70;;
1721;SDS011;858;53.190;8.596;2022-07-06T12:23:01;2.10;;;0.80;;
1721;SDS011;858;53.190;8.596;2022-07-06T12:25:31;2.90;;;0.80;;
1721;SDS011;858;53.190;8.596;2022-07-06T12:27:57;5.72;;;1.00;;
1721;SDS011;858;53.190;8.596;2022-07-06T12:30:25;2.33;;;0.70;;
1721;SDS011;858;53.190;8.596;2022-07-06T12:35:36;2.08;;;0.80;;
1721;SDS011;858;53.190;8.596;2022-07-06T12:38:03;2.58;;;1.00;;
1721;SDS011;858;53.190;8.596;2022-07-06T12:40:29;3.55;;;0.85;;
1721;SDS011;858;53.190;8.596;2022-07-06T12:42:56;2.17;;;0.90;;
1721;SDS011;858;53.190;8.596;2022-07-06T12:45:27;2.00;;;0.90;;
1721;SDS011;858;53.190;8.596;2022-07-06T12:47:56;1.85;;;0.80;;
1721;SDS011;858;53.190;8.596;2022-07-06T12:50:29;2.72;;;0.63;;
1721;SDS011;858;53.190;8.596;2022-07-06T12:52:56;3.55;;;1.10;;
1721;SDS011;858;53.190;8.596;2022-07-06T12:55:25;2.40;;;0.97;;
1721;SDS011;858;53.190;8.596;2022-07-06T12:57:51;3.20;;;0.90;;
1721;SDS011;858;53.190;8.596;2022-07-06T13:00:18;4.10;;;0.90;;
1721;SDS011;858;53.190;8.596;2022-07-06T13:02:47;1.20;;;0.60;;
1721;SDS011;858;53.190;8.596;2022-07-06T13:05:18;2.17;;;0.82;;
1721;SDS011;858;53.190;8.596;2022-07-06T13:07:45;4.30;;;1.00;;
1721;SDS011;858;53.190;8.596;2022-07-06T13:10:12;3.00;;;0.70;;
1721;SDS011;858;53.190;8.596;2022-07-06T13:12:39;2.73;;;0.80;;
1721;SDS011;858;53.190;8.596;2022-07-06T13:15:06;1.80;;;0.90;;
1721;SDS011;858;53.190;8.596;2022-07-06T13:17:33;3.47;;;1.00;;
1721;SDS011;858;53.190;8.596;2022-07-06T13:20:01;6.20;;;0.90;;
1721;SDS011;858;53.190;8.596;2022-07-06T13:22:28;3.42;;;1.10;;
1721;SDS011;858;53.190;8.596;2022-07-06T13:24:54;4.47;;;1.00;;
1721;SDS011;858;53.190;8.596;2022-07-06T13:27:20;2.60;;;0.75;;
1721;SDS011;858;53.190;8.596;2022-07-06T13:29:47;2.38;;;0.82;;
1721;SDS011;858;53.190;8.596;2022-07-06T13:32:13;1.83;;;0.70;;
1721;SDS011;858;53.190;8.596;2022-07-06T13:34:39;2.40;;;0.70;;
1721;SDS011;858;53.190;8.596;2022-07-06T13:37:07;3.40;;;0.90;;
1721;SDS011;858;53.190;8.596;2022-07-06T13:39:34;2.87;;;0.70;;
1721;SDS011;858;53.190;8.596;2022-07-06T13:42:00;1.60;;;0.50;;
1721;SDS011;858;53.190;8.596;2022-07-06T13:44:26;1.55;;;0.50;;
1721;SDS011;858;53.190;8.596;2022-07-06T13:46:52;3.30;;;0.80;;
1721;SDS011;858;53.190;8.596;2022-07-06T13:49:19;1.88;;;0.60;;
1721;SDS011;858;53.190;8.596;2022-07-06T13:51:45;2.33;;;0.80;;
1721;SDS011;858;53.190;8.596;2022-07-06T13:54:13;1.88;;;0.70;;
1721;SDS011;858;53.190;8.596;2022-07-06T13:56:39;3.00;;;0.60;;
1721;SDS011;858;53.190;8.596;2022-07-06T13:59:06;3.15;;;0.60;;
1721;SDS011;858;53.190;8.596;2022-07-06T14:01:32;1.75;;;0.60;;
1721;SDS011;858;53.190;8.596;2022-07-06T14:03:59;2.67;;;0.88;;
1721;SDS011;858;53.190;8.596;2022-07-06T14:06:25;3.10;;;0.90;;
1721;SDS011;858;53.190;8.596;2022-07-06T14:08:51;3.10;;;0.60;;
1721;SDS011;858;53.190;8.596;2022-07-06T14:11:19;1.88;;;0.68;;
1721;SDS011;858;53.190;8.596;2022-07-06T14:13:45;4.78;;;0.80;;
1721;SDS011;858;53.190;8.596;2022-07-06T14:16:12;1.50;;;0.60;;
1721;SDS011;858;53.190;8.596;2022-07-06T14:18:38;2.83;;;0.75;;
1721;SDS011;858;53.190;8.596;2022-07-06T14:21:04;2.70;;;0.80;;
1721;SDS011;858;53.190;8.596;2022-07-06T14:23:31;2.30;;;0.80;;
1721;SDS011;858;53.190;8.596;2022-07-06T14:25:57;2.70;;;0.80;;
1721;SDS011;858;53.190;8.596;2022-07-06T14:28:25;3.13;;;1.02;;
1721;SDS011;858;53.190;8.596;2022-07-06T14:30:51;1.30;;;0.70;;
1721;SDS011;858;53.190;8.596;2022-07-06T14:33:18;3.43;;;0.80;;
1721;SDS011;858;53.190;8.596;2022-07-06T14:35:46;3.95;;;0.95;;
1721;SDS011;858;53.190;8.596;2022-07-06T14:38:12;3.65;;;0.90;;
1721;SDS011;858;53.190;8.596;2022-07-06T14:40:39;1.42;;;0.80;;
1721;SDS011;858;53.190;8.596;2022-07-06T14:43:05;1.30;;;0.70;;
1721;SDS011;858;53.190;8.596;2022-07-06T14:45:33;2.30;;;1.00;;
1721;SDS011;858;53.190;8.596;2022-07-06T14:47:59;2.70;;;1.10;;
1721;SDS011;858;53.190;8.596;2022-07-06T14:50:26;3.60;;;0.90;;
1721;SDS011;858;53.190;8.596;2022-07-06T14:52:53;2.63;;;1.08;;
1721;SDS011;858;53.190;8.596;2022-07-06T14:55:19;3.60;;;1.00;;
1721;SDS011;858;53.190;8.596;2022-07-06T14:57:46;2.53;;;0.90;;
1721;SDS011;858;53.190;8.596;2022-07-06T15:00:12;2.80;;;1.10;;
1721;SDS011;858;53.190;8.596;2022-07-06T15:02:41;3.92;;;1.20;;
1721;SDS011;858;53.190;8.596;2022-07-06T15:05:08;2.57;;;1.07;;
1721;SDS011;858;53.190;8.596;2022-07-06T15:07:34;4.82;;;1.40;;
1721;SDS011;858;53.190;8.596;2022-07-06T15:10:01;3.15;;;1.13;;
1721;SDS011;858;53.190;8.596;2022-07-06T15:12:27;3.30;;;1.00;;
1721;SDS011;858;53.190;8.596;2022-07-06T15:14:53;2.20;;;1.20;;
1721;SDS011;858;53.190;8.596;2022-07-06T15:17:20;3.60;;;1.00;;
1721;SDS011;858;53.190;8.596;2022-07-06T15:19:47;2.40;;;1.20;;
1721;SDS011;858;53.190;8.596;2022-07-06T15:22:14;3.38;;;1.05;;
1721;SDS011;858;53.190;8.596;2022-07-06T15:24:40;3.03;;;1.10;;
1721;SDS011;858;53.190;8.596;2022-07-06T15:27:06;2.50;;;1.33;;
1721;SDS011;858;53.190;8.596;2022-07-06T15:29:33;2.20;;;1.00;;
1721;SDS011;858;53.190;8.596;2022-07-06T15:31:59;3.08;;;0.90;;
1721;SDS011;858;53.190;8.596;2022-07-06T15:34:26;3.92;;;1.15;;